Time;durP1;ratioP1;P1;durP2;ratioP2;P2;SDS_P1;SDS_P2;PMS_P1;PMS_P2;Temp;Humidity;BMP_temperature;BMP_pressure;BME280_temperature;BME280_humidity;BME280_pressure;Samples;Min_cycle;Max_cycle;Signal;HPM_P1;HPM_P2
2021/06/17 00:00:38;;;;;;;9.95;6.03;;;23.50;69.70;;;;;;5107450;28;20038;-81
2021/06/17 00:03:05;;;;;;;9.15;5.50;;;23.50;70.00;;;;;;5115793;28;20452;-81
2021/06/17 00:05:33;;;;;;;6.68;5.60;;;23.50;70.30;;;;;;5106208;28;20063;-81
2021/06/17 00:08:01;;;;;;;6.97;5.50;;;23.50;70.40;;;;;;5108165;28;20016;-81
2021/06/17 00:10:34;;;;;;;9.27;5.43;;;23.50;70.40;;;;;;5096910;28;20109;-81
2021/06/17 00:13:03;;;;;;;6.70;5.78;;;23.50;69.50;;;;;;5096325;28;20631;-81
2021/06/17 00:15:32;;;;;;;5.75;5.25;;;23.40;68.90;;;;;;5099955;28;20066;-81
2021/06/17 00:17:58;;;;;;;7.20;5.65;;;23.40;68.30;;;;;;5097243;28;20027;-81
2021/06/17 00:20:25;;;;;;;7.35;5.47;;;23.40;68.30;;;;;;5044985;28;20354;-81
2021/06/17 00:22:51;;;;;;;8.70;6.18;;;23.40;68.30;;;;;;5096013;28;20407;-81
2021/06/17 00:25:17;;;;;;;8.00;5.50;;;23.40;68.90;;;;;;5106437;28;20081;-81
2021/06/17 00:27:43;;;;;;;8.00;5.65;;;23.30;69.20;;;;;;5116146;28;20496;-81
2021/06/17 00:30:11;;;;;;;9.43;6.20;;;23.30;69.10;;;;;;5108872;28;20031;-81
2021/06/17 00:32:36;;;;;;;7.57;5.85;;;23.30;69.30;;;;;;5067144;28;20062;-81
2021/06/17 00:35:03;;;;;;;7.60;5.65;;;23.20;69.30;;;;;;5109542;28;20051;-81
2021/06/17 00:37:29;;;;;;;8.13;5.65;;;23.20;69.10;;;;;;5096051;28;20023;-81
2021/06/17 00:39:55;;;;;;;6.10;5.50;;;23.20;68.80;;;;;;5067027;28;20442;-81
2021/06/17 00:42:21;;;;;;;5.93;5.00;;;23.10;69.20;;;;;;5097960;28;20482;-81
2021/06/17 00:44:46;;;;;;;6.00;5.32;;;23.00;69.90;;;;;;5095981;28;20480;-81
2021/06/17 00:47:12;;;;;;;7.75;5.88;;;23.00;71.00;;;;;;5107151;28;20048;-81
2021/06/17 00:49:38;;;;;;;7.60;5.72;;;23.00;70.60;;;;;;5113854;28;20020;-81
2021/06/17 00:52:06;;;;;;;8.68;5.63;;;22.90;70.20;;;;;;5090245;28;20399;-81
2021/06/17 00:54:33;;;;;;;8.98;6.10;;;22.90;70.00;;;;;;5113091;28;20024;-81
2021/06/17 00:57:05;;;;;;;8.20;5.57;;;22.90;70.30;;;;;;5097830;28;20023;-81
2021/06/17 00:59:31;;;;;;;6.53;5.80;;;22.90;71.10;;;;;;5113678;28;20028;-81
2021/06/17 01:01:57;;;;;;;9.63;5.72;;;22.90;70.30;;;;;;5101663;28;20031;-81
2021/06/17 01:04:27;;;;;;;8.50;5.78;;;22.90;70.50;;;;;;5115351;28;20039;-81
2021/06/17 01:06:53;;;;;;;10.48;5.97;;;22.90;70.70;;;;;;5080086;28;20027;-81
2021/06/17 01:09:39;;;;;;;8.57;5.90;;;22.90;70.70;;;;;;5069179;28;20043;-81
2021/06/17 01:12:09;;;;;;;8.10;6.05;;;22.90;70.30;;;;;;5114284;28;20031;-81
2021/06/17 01:14:43;;;;;;;7.25;6.38;;;23.00;70.00;;;;;;5111230;28;20028;-81
2021/06/17 01:17:14;;;;;;;8.65;6.47;;;22.90;69.40;;;;;;5083471;28;20024;-81
2021/06/17 01:20:04;;;;;;;6.82;5.85;;;22.90;69.70;;;;;;5082167;28;20452;-81
2021/06/17 01:22:46;;;;;;;7.30;6.50;;;22.80;69.90;;;;;;5078305;28;20111;-81
2021/06/17 01:25:45;;;;;;;10.82;6.78;;;22.70;69.80;;;;;;5114460;28;20102;-81
2021/06/17 01:28:17;;;;;;;9.75;6.47;;;22.70;70.40;;;;;;5109767;28;20062;-81
2021/06/17 01:30:53;;;;;;;8.35;6.35;;;22.70;70.60;;;;;;5104995;28;20481;-81
2021/06/17 01:33:19;;;;;;;7.75;6.82;;;22.70;71.00;;;;;;5114481;28;20495;-81
2021/06/17 01:35:49;;;;;;;8.20;6.80;;;22.60;71.00;;;;;;5104070;28;20027;-81
2021/06/17 01:38:19;;;;;;;8.80;5.97;;;22.60;70.70;;;;;;5093885;28;20016;-81
2021/06/17 01:40:46;;;;;;;7.60;6.18;;;22.60;71.10;;;;;;5085366;28;20104;-81
2021/06/17 01:43:15;;;;;;;7.53;6.28;;;22.60;72.00;;;;;;5085036;28;20027;-81
2021/06/17 01:45:41;;;;;;;;;;;22.50;71.10;;;;;;5096943;28;20028;-81
2021/06/17 01:48:08;;;;;;;8.10;6.13;;;22.40;71.00;;;;;;5091401;28;20323;-81
2021/06/17 01:50:35;;;;;;;8.73;6.80;;;22.30;71.80;;;;;;5094055;28;20028;-75
2021/06/17 01:53:01;;;;;;;16.15;7.05;;;22.30;72.10;;;;;;5078454;28;20471;-75
2021/06/17 01:55:31;;;;;;;8.38;7.57;;;22.20;72.10;;;;;;5088827;28;20392;-76
2021/06/17 01:58:02;;;;;;;12.75;7.50;;;22.20;72.30;;;;;;5058949;28;20031;-75
2021/06/17 02:00:30;;;;;;;9.25;7.60;;;22.20;72.50;;;;;;5093361;28;20024;-76
2021/06/17 02:02:56;;;;;;;9.38;8.15;;;22.20;72.40;;;;;;5095445;28;20038;-74
2021/06/17 02:05:22;;;;;;;9.15;8.00;;;22.20;72.50;;;;;;5079405;28;20035;-74
2021/06/17 02:07:49;;;;;;;10.63;8.25;;;22.20;73.50;;;;;;5077234;28;20065;-75
2021/06/17 02:10:19;;;;;;;11.15;8.40;;;22.20;73.00;;;;;;5069071;28;20031;-74
2021/06/17 02:12:46;;;;;;;9.43;7.88;;;22.10;73.10;;;;;;5078440;28;20024;-75
2021/06/17 02:15:12;;;;;;;9.13;8.15;;;22.10;73.30;;;;;;5105133;28;20012;-74
2021/06/17 02:17:41;;;;;;;10.13;8.10;;;22.10;73.30;;;;;;5093693;28;20113;-75
2021/06/17 02:20:07;;;;;;;11.10;8.55;;;22.20;73.40;;;;;;5095295;28;20523;-75
2021/06/17 02:22:36;;;;;;;9.63;8.35;;;22.10;73.30;;;;;;5094817;28;20034;-75
2021/06/17 02:25:03;;;;;;;;;;;22.10;73.60;;;;;;5113362;28;20476;-75
2021/06/17 02:27:31;;;;;;;9.30;7.47;;;22.10;73.40;;;;;;5095021;28;20351;-75
2021/06/17 02:30:01;;;;;;;15.88;8.52;;;22.00;73.90;;;;;;5077789;28;20056;-75
2021/06/17 02:32:29;;;;;;;13.63;8.57;;;22.00;74.10;;;;;;5110627;28;20458;-75
2021/06/17 02:34:57;;;;;;;9.93;8.80;;;22.00;74.90;;;;;;5109375;28;20020;-75
2021/06/17 02:37:25;;;;;;;15.65;8.65;;;22.00;74.30;;;;;;5080564;28;20502;-75
2021/06/17 02:39:52;;;;;;;10.50;8.63;;;22.10;74.30;;;;;;5103383;28;20036;-75
2021/06/17 02:42:20;;;;;;;12.50;9.03;;;22.10;74.40;;;;;;5093856;28;20058;-75
2021/06/17 02:44:48;;;;;;;16.90;8.73;;;22.10;74.30;;;;;;5112964;28;20023;-75
2021/06/17 02:47:14;;;;;;;10.07;8.52;;;22.20;74.40;;;;;;5110184;28;20031;-76
2021/06/17 02:49:40;;;;;;;10.77;8.63;;;22.20;74.50;;;;;;5074694;28;20077;-75
2021/06/17 02:52:07;;;;;;;11.65;8.80;;;22.20;74.60;;;;;;5091422;28;20032;-75
2021/06/17 02:54:33;;;;;;;12.18;8.70;;;22.20;74.60;;;;;;5111351;28;20059;-75
2021/06/17 02:57:20;;;;;;;9.52;8.15;;;22.20;74.80;;;;;;5094330;28;20422;-75
2021/06/17 03:00:05;;;;;;;12.40;8.47;;;22.10;74.60;;;;;;5112935;28;20020;-75
2021/06/17 03:02:37;;;;;;;10.32;8.68;;;22.10;74.70;;;;;;5092589;28;20040;-75
2021/06/17 03:05:12;;;;;;;11.55;9.15;;;22.10;74.90;;;;;;5093827;28;20020;-75
2021/06/17 03:07:45;;;;;;;12.23;9.32;;;22.00;74.80;;;;;;5089560;28;20507;-75
2021/06/17 03:10:12;;;;;;;14.50;9.20;;;22.00;75.10;;;;;;5131221;27;20032;-75
2021/06/17 03:12:41;;;;;;;15.40;9.15;;;22.00;75.30;;;;;;5103823;28;20050;-75
2021/06/17 03:15:07;;;;;;;13.95;9.50;;;22.00;75.30;;;;;;5106219;28;20055;-75
2021/06/17 03:17:35;;;;;;;15.07;9.10;;;22.10;75.40;;;;;;5090310;28;20036;-74
2021/06/17 03:20:05;;;;;;;15.45;8.63;;;22.00;75.50;;;;;;5115199;28;20016;-75
2021/06/17 03:22:32;;;;;;;12.25;9.60;;;22.00;75.60;;;;;;5108554;28;20031;-75
2021/06/17 03:25:04;;;;;;;13.25;9.13;;;22.00;75.60;;;;;;5097918;28;20028;-76
2021/06/17 03:27:31;;;;;;;14.73;8.95;;;22.00;75.60;;;;;;5106441;28;20040;-75
2021/06/17 03:29:57;;;;;;;12.82;8.57;;;22.00;75.70;;;;;;5101443;28;20031;-75
2021/06/17 03:32:26;;;;;;;11.57;8.88;;;22.00;75.90;;;;;;5115811;28;20073;-75
2021/06/17 03:34:52;;;;;;;18.27;9.23;;;22.00;75.90;;;;;;5097511;28;20026;-75
2021/06/17 03:37:20;;;;;;;14.10;9.75;;;22.00;75.90;;;;;;5079885;28;20078;-75
2021/06/17 03:39:47;;;;;;;17.88;10.48;;;22.00;76.20;;;;;;5094647;28;20487;-75
2021/06/17 03:42:15;;;;;;;19.40;9.52;;;22.00;76.30;;;;;;5114863;28;20471;-75
2021/06/17 03:44:42;;;;;;;19.85;10.02;;;22.00;76.20;;;;;;5089334;28;20028;-75
2021/06/17 03:47:11;;;;;;;21.77;9.77;;;22.00;76.30;;;;;;5107467;28;20040;-75
2021/06/17 03:49:38;;;;;;;18.77;10.07;;;22.10;76.40;;;;;;5076112;28;20480;-75
2021/06/17 03:52:04;;;;;;;15.10;9.38;;;22.10;76.30;;;;;;5092779;28;20431;-75
2021/06/17 03:54:31;;;;;;;22.73;9.18;;;22.10;76.20;;;;;;5106583;28;20429;-75
2021/06/17 03:57:00;;;;;;;20.27;9.30;;;22.20;76.20;;;;;;5104367;28;20098;-75
2021/06/17 03:59:41;;;;;;;17.55;8.60;;;22.20;75.90;;;;;;5081502;28;20024;-75
2021/06/17 04:02:07;;;;;;;15.20;8.43;;;22.30;75.60;;;;;;5114406;28;20550;-75
2021/06/17 04:04:33;;;;;;;14.00;8.52;;;22.30;75.50;;;;;;5107895;28;20032;-75
2021/06/17 04:07:05;;;;;;;11.90;7.82;;;22.40;75.20;;;;;;5087553;28;20024;-75
2021/06/17 04:09:33;;;;;;;15.95;8.68;;;22.40;75.00;;;;;;5101377;28;20035;-75
2021/06/17 04:12:08;;;;;;;16.35;7.90;;;22.50;74.70;;;;;;5080682;28;20051;-75
2021/06/17 04:14:37;;;;;;;13.07;7.50;;;22.50;74.40;;;;;;5092072;28;20070;-75
2021/06/17 04:17:06;;;;;;;13.60;7.22;;;22.50;74.00;;;;;;5107742;28;20345;-75
2021/06/17 04:19:35;;;;;;;14.13;7.03;;;22.50;73.90;;;;;;5097615;28;20020;-75
2021/06/17 04:22:03;;;;;;;9.25;6.45;;;22.60;73.40;;;;;;5113619;28;20032;-75
2021/06/17 04:24:32;;;;;;;13.98;7.32;;;22.60;73.10;;;;;;5115664;28;20357;-75
2021/06/17 04:26:59;;;;;;;12.98;6.90;;;22.70;73.70;;;;;;5114458;28;20027;-75
2021/06/17 04:29:26;;;;;;;13.43;6.53;;;22.70;72.90;;;;;;5089280;28;20050;-75
2021/06/17 04:31:53;;;;;;;11.48;6.53;;;22.70;72.50;;;;;;5111481;28;20058;-75
2021/06/17 04:34:20;;;;;;;13.63;6.75;;;22.70;71.90;;;;;;5086067;28;20106;-75
2021/06/17 04:36:47;;;;;;;16.10;6.43;;;22.80;71.80;;;;;;5113610;28;20031;-75
2021/06/17 04:39:14;;;;;;;11.68;6.40;;;22.80;71.60;;;;;;5099770;28;20035;-75
2021/06/17 04:41:43;;;;;;;12.95;6.30;;;22.80;72.30;;;;;;5106387;28;20027;-76
2021/06/17 04:44:09;;;;;;;8.07;5.90;;;22.90;71.40;;;;;;5115391;28;20015;-75
2021/06/17 04:46:35;;;;;;;12.65;6.25;;;22.90;71.30;;;;;;5103420;28;20122;-75
2021/06/17 04:49:02;;;;;;;12.45;5.97;;;22.90;71.00;;;;;;5094077;28;20055;-76
2021/06/17 04:51:32;;;;;;;11.02;6.00;;;23.00;70.90;;;;;;5087573;28;20032;-75
2021/06/17 04:53:57;;;;;;;12.65;6.43;;;22.90;71.30;;;;;;5109478;28;20019;-75
2021/06/17 04:56:23;;;;;;;14.55;6.05;;;23.00;70.50;;;;;;5114649;28;20084;-75
2021/06/17 04:58:50;;;;;;;8.15;5.70;;;23.00;70.30;;;;;;5060095;28;20024;-76
2021/06/17 05:01:19;;;;;;;10.80;5.80;;;23.00;70.30;;;;;;5096260;28;20031;-75
2021/06/17 05:03:46;;;;;;;17.90;6.28;;;23.00;70.40;;;;;;5108112;28;20107;-75
2021/06/17 05:06:14;;;;;;;11.52;5.28;;;23.00;70.60;;;;;;5095216;28;20457;-75
2021/06/17 05:11:25;;;;;;;10.45;5.50;;;23.10;71.10;;;;;;5099522;28;20397;-76
2021/06/17 05:13:51;;;;;;;12.70;5.57;;;23.10;71.10;;;;;;5102993;28;20025;-76
2021/06/17 05:16:17;;;;;;;11.05;5.72;;;23.10;71.00;;;;;;5095473;28;20507;-76
2021/06/17 05:18:42;;;;;;;22.45;5.72;;;23.10;70.60;;;;;;5094593;28;20055;-77
2021/06/17 05:21:08;;;;;;;15.75;5.65;;;23.20;70.40;;;;;;5093043;28;20038;-77
2021/06/17 05:23:37;;;;;;;12.18;5.13;;;23.20;70.40;;;;;;5106533;28;20081;-77
2021/06/17 05:26:04;;;;;;;7.97;5.38;;;23.20;69.90;;;;;;5094930;28;20023;-76
2021/06/17 05:28:30;;;;;;;10.93;5.55;;;23.20;69.80;;;;;;5094233;28;20088;-76
2021/06/17 05:31:02;;;;;;;17.02;5.68;;;23.30;69.70;;;;;;5096257;28;20391;-76
2021/06/17 05:33:30;;;;;;;11.73;5.53;;;23.30;69.50;;;;;;5101554;28;20043;-76
2021/06/17 05:35:57;;;;;;;10.13;5.22;;;23.30;69.70;;;;;;5101019;28;20070;-80
2021/06/17 05:38:23;;;;;;;8.95;4.85;;;23.30;69.40;;;;;;5099375;28;20077;-80
2021/06/17 05:40:50;;;;;;;11.98;5.43;;;23.30;69.30;;;;;;5102921;28;20028;-81
2021/06/17 05:43:16;;;;;;;12.88;5.50;;;23.40;69.20;;;;;;5092316;28;20108;-81
2021/06/17 05:45:42;;;;;;;13.13;5.07;;;23.40;69.00;;;;;;5096249;28;20077;-80
2021/06/17 05:48:08;;;;;;;7.65;4.63;;;23.50;69.10;;;;;;5076548;28;20027;-81
2021/06/17 05:50:34;;;;;;;14.65;4.97;;;23.50;69.10;;;;;;5094221;28;20024;-80
2021/06/17 05:52:59;;;;;;;8.88;5.07;;;23.50;69.20;;;;;;5108115;28;20031;-81
2021/06/17 05:55:26;;;;;;;10.02;5.28;;;23.50;69.20;;;;;;5114449;28;20450;-81
2021/06/17 05:57:51;;;;;;;13.30;5.93;;;23.50;68.90;;;;;;5082888;28;20112;-81
2021/06/17 06:00:17;;;;;;;11.07;5.70;;;23.60;69.20;;;;;;5076491;28;20048;-81
2021/06/17 06:02:43;;;;;;;10.93;5.03;;;23.60;69.10;;;;;;5094078;28;20028;-81
2021/06/17 06:05:09;;;;;;;9.20;4.82;;;23.60;69.60;;;;;;5098439;28;20019;-81
2021/06/17 06:07:35;;;;;;;12.27;4.93;;;23.60;69.30;;;;;;5114566;28;20360;-81
2021/06/17 06:10:00;;;;;;;14.15;4.95;;;23.60;69.00;;;;;;5096123;28;20468;-81
2021/06/17 06:12:26;;;;;;;14.10;5.43;;;23.60;69.10;;;;;;5096009;28;20057;-81
2021/06/17 06:14:52;;;;;;;16.02;5.03;;;23.70;69.20;;;;;;5090719;28;20032;-80
2021/06/17 06:17:18;;;;;;;14.63;5.20;;;23.70;69.90;;;;;;5096006;28;20467;-80
2021/06/17 06:19:44;;;;;;;15.82;4.97;;;23.70;69.00;;;;;;5096160;28;20102;-81
2021/06/17 06:22:10;;;;;;;11.68;5.25;;;23.80;68.60;;;;;;5113698;28;20031;-81
2021/06/17 06:24:37;;;;;;;10.32;4.55;;;23.80;68.80;;;;;;5112854;28;20050;-81
2021/06/17 06:27:04;;;;;;;10.98;4.30;;;23.90;68.50;;;;;;5078394;28;20038;-81
2021/06/17 06:29:30;;;;;;;13.00;4.18;;;24.00;68.00;;;;;;5101227;28;20043;-81
2021/06/17 06:31:57;;;;;;;16.25;4.53;;;24.00;67.80;;;;;;5110935;28;20080;-80
2021/06/17 06:34:24;;;;;;;13.38;4.40;;;24.20;68.10;;;;;;5094979;28;20020;-81
2021/06/17 06:36:49;;;;;;;11.65;4.75;;;24.20;67.90;;;;;;5113034;28;20062;-81
2021/06/17 06:39:16;;;;;;;10.13;3.90;;;24.40;67.60;;;;;;5112882;28;20051;-81
2021/06/17 06:41:43;;;;;;;12.73;4.20;;;24.60;66.20;;;;;;5113509;28;20031;-81
2021/06/17 06:44:10;;;;;;;15.00;4.15;;;24.80;65.80;;;;;;5110977;28;20383;-81
2021/06/17 06:46:39;;;;;;;10.80;3.58;;;25.00;65.30;;;;;;5094521;28;20082;-81
2021/06/17 06:49:05;;;;;;;10.05;3.50;;;25.30;64.60;;;;;;5075020;28;20477;-81
2021/06/17 06:51:31;;;;;;;9.82;3.35;;;25.40;64.00;;;;;;5084997;28;20119;-81
2021/06/17 06:53:57;;;;;;;11.25;3.40;;;25.40;63.00;;;;;;5090293;28;20031;-81
2021/06/17 06:56:23;;;;;;;11.15;3.33;;;25.40;63.00;;;;;;5095656;28;20027;-81
2021/06/17 06:58:48;;;;;;;6.68;3.42;;;25.40;63.00;;;;;;5078626;28;20050;-81
2021/06/17 07:01:14;;;;;;;8.57;3.53;;;25.50;63.00;;;;;;5101003;28;20016;-81
2021/06/17 07:03:40;;;;;;;7.00;3.65;;;25.60;63.00;;;;;;5113622;28;20035;-81
2021/06/17 07:06:06;;;;;;;7.43;3.60;;;25.60;62.70;;;;;;5078685;28;20028;-81
2021/06/17 07:08:32;;;;;;;6.32;3.35;;;25.60;62.70;;;;;;5113717;28;20384;-81
2021/06/17 07:10:58;;;;;;;5.97;3.28;;;25.50;62.40;;;;;;5080354;28;20031;-81
2021/06/17 07:13:23;;;;;;;9.00;3.53;;;25.40;63.10;;;;;;5093795;28;20063;-81
2021/06/17 07:15:49;;;;;;;8.23;3.50;;;25.30;63.80;;;;;;5083356;28;20082;-81
2021/06/17 07:18:14;;;;;;;8.82;3.35;;;25.30;64.00;;;;;;5099838;28;20420;-81
2021/06/17 07:20:40;;;;;;;10.05;3.38;;;25.40;63.30;;;;;;5077447;28;20023;-81
2021/06/17 07:23:06;;;;;;;11.25;3.40;;;25.50;63.20;;;;;;5110278;28;20488;-81
2021/06/17 07:25:32;;;;;;;11.25;3.25;;;25.60;63.30;;;;;;5092776;28;20024;-81
2021/06/17 07:27:58;;;;;;;9.18;3.13;;;25.80;63.10;;;;;;5075050;28;20035;-81
2021/06/17 07:30:24;;;;;;;5.10;3.00;;;26.00;61.70;;;;;;5074847;28;20465;-81
2021/06/17 07:32:50;;;;;;;4.85;3.08;;;26.20;60.20;;;;;;5075010;28;20424;-81
2021/06/17 07:35:16;;;;;;;8.77;3.10;;;26.50;60.00;;;;;;5093110;28;20495;-81
2021/06/17 07:37:42;;;;;;;6.63;2.97;;;26.60;59.50;;;;;;5092741;28;20529;-81
2021/06/17 07:40:10;;;;;;;4.47;3.00;;;26.90;60.30;;;;;;5093018;28;20016;-81
2021/06/17 07:42:36;;;;;;;9.38;2.92;;;27.00;59.40;;;;;;5092962;28;20036;-81
2021/06/17 07:45:05;;;;;;;6.53;2.50;;;27.20;59.40;;;;;;5093105;28;20412;-82
2021/06/17 07:47:32;;;;;;;4.70;2.75;;;27.30;59.50;;;;;;5063844;28;20036;-81
2021/06/17 07:49:57;;;;;;;5.75;2.92;;;27.50;58.70;;;;;;5112997;28;20055;-81
2021/06/17 07:52:23;;;;;;;8.18;2.97;;;27.50;57.50;;;;;;5095218;28;20112;-82
2021/06/17 07:54:49;;;;;;;4.15;2.53;;;27.60;57.30;;;;;;5095646;28;20049;-81
2021/06/17 07:57:15;;;;;;;5.95;3.10;;;27.80;56.40;;;;;;5116420;28;20032;-82
2021/06/17 07:59:40;;;;;;;6.25;2.60;;;27.90;56.30;;;;;;5116795;28;20468;-83
2021/06/17 08:02:07;;;;;;;3.90;2.40;;;28.00;56.40;;;;;;5080145;28;20055;-83
2021/06/17 08:04:33;;;;;;;6.75;2.42;;;28.10;55.40;;;;;;5094973;28;20028;-84
2021/06/17 08:06:59;;;;;;;10.98;2.50;;;28.20;55.60;;;;;;5116295;28;20032;-83
2021/06/17 08:09:24;;;;;;;10.15;2.70;;;28.30;55.60;;;;;;5116212;28;20403;-83
2021/06/17 08:11:51;;;;;;;9.57;2.88;;;28.40;54.40;;;;;;5116403;28;20024;-83
2021/06/17 08:14:28;;;;;;;7.55;2.85;;;28.50;53.70;;;;;;5116572;28;20024;-83
2021/06/17 08:16:56;;;;;;;5.60;2.40;;;28.50;53.40;;;;;;5082426;28;20110;-84
2021/06/17 08:19:32;;;;;;;4.53;2.50;;;28.70;53.40;;;;;;5096544;28;20082;-83
2021/06/17 08:22:10;;;;;;;9.07;2.78;;;28.80;53.30;;;;;;5077907;28;20028;-83
2021/06/17 08:24:39;;;;;;;8.00;2.80;;;29.00;52.30;;;;;;5095980;28;20074;-83
2021/06/17 08:27:05;;;;;;;5.07;2.97;;;29.10;52.80;;;;;;5096085;28;20058;-83
2021/06/17 08:29:31;;;;;;;9.02;3.03;;;29.20;52.50;;;;;;5096004;28;20130;-83
2021/06/17 08:31:57;;;;;;;6.32;2.85;;;29.30;52.20;;;;;;5061045;28;20127;-83
2021/06/17 08:34:26;;;;;;;7.00;2.67;;;29.40;52.20;;;;;;5096354;28;20027;-83
2021/06/17 08:36:52;;;;;;;7.00;2.30;;;29.50;51.70;;;;;;5078542;28;20028;-83
2021/06/17 08:39:19;;;;;;;8.27;2.75;;;29.70;52.40;;;;;;5077626;28;20039;-83
2021/06/17 08:41:45;;;;;;;4.60;2.40;;;29.80;51.30;;;;;;5095801;28;20020;-83
2021/06/17 08:44:11;;;;;;;4.93;2.40;;;29.90;51.70;;;;;;5095725;28;20028;-83
2021/06/17 08:46:38;;;;;;;6.10;2.80;;;30.00;51.40;;;;;;5077305;28;20028;-83
2021/06/17 08:49:04;;;;;;;5.78;2.38;;;30.10;51.00;;;;;;5095415;28;20020;-83
2021/06/17 08:51:32;;;;;;;9.52;2.83;;;30.20;50.40;;;;;;5095447;28;20127;-83
2021/06/17 08:53:58;;;;;;;7.00;2.75;;;30.40;50.60;;;;;;5077461;28;20411;-83
2021/06/17 08:56:25;;;;;;;6.97;2.38;;;30.50;49.70;;;;;;5060760;28;20028;-83
2021/06/17 08:58:56;;;;;;;3.78;2.40;;;30.60;50.20;;;;;;5060602;28;20020;-84
2021/06/17 09:01:22;;;;;;;6.47;2.40;;;30.70;50.30;;;;;;5110166;28;20099;-83
2021/06/17 09:03:49;;;;;;;4.38;2.72;;;30.80;49.70;;;;;;5096828;28;20066;-83
2021/06/17 09:06:18;;;;;;;5.55;2.40;;;30.90;49.60;;;;;;5115090;28;20469;-83
2021/06/17 09:09:00;;;;;;;9.75;2.70;;;31.00;49.20;;;;;;5115187;28;20384;-83
2021/06/17 09:11:27;;;;;;;7.78;2.80;;;31.10;49.40;;;;;;5115240;28;20106;-83
2021/06/17 09:14:12;;;;;;;9.98;2.75;;;31.20;49.20;;;;;;5097562;28;20020;-83
2021/06/17 09:16:38;;;;;;;4.90;2.50;;;31.20;48.40;;;;;;5079695;28;20046;-83
2021/06/17 09:19:03;;;;;;;6.80;2.63;;;31.30;48.20;;;;;;5078565;28;20362;-83
2021/06/17 09:21:29;;;;;;;10.00;2.80;;;31.30;48.10;;;;;;5077042;28;20353;-84
2021/06/17 09:23:55;;;;;;;9.20;2.67;;;31.40;48.20;;;;;;5060093;28;20043;-83
2021/06/17 09:26:23;;;;;;;7.55;3.22;;;31.40;48.30;;;;;;5076980;28;20573;-84
2021/06/17 09:29:05;;;;;;;7.05;3.00;;;31.50;48.10;;;;;;5095426;28;20128;-83
2021/06/17 09:31:36;;;;;;;14.15;3.15;;;31.60;48.40;;;;;;5115039;28;20491;-84
2021/06/17 09:34:03;;;;;;;8.07;3.08;;;31.60;47.60;;;;;;5114934;28;20032;-84
2021/06/17 09:36:33;;;;;;;6.07;2.50;;;31.60;48.00;;;;;;5115189;28;20028;-84
2021/06/17 09:39:03;;;;;;;9.38;2.47;;;31.60;48.30;;;;;;5080316;28;20099;-84
2021/06/17 09:41:50;;;;;;;4.53;2.67;;;31.70;47.30;;;;;;5109628;28;20024;-83
2021/06/17 09:44:41;;;;;;;7.55;2.72;;;31.90;46.80;;;;;;5094580;28;20408;-83
2021/06/17 09:47:07;;;;;;;6.72;2.72;;;31.90;46.80;;;;;;5094755;28;20024;-83
2021/06/17 09:49:32;;;;;;;7.88;3.15;;;32.00;46.30;;;;;;5094097;28;20507;-84
2021/06/17 09:51:58;;;;;;;5.90;2.60;;;32.00;45.70;;;;;;5076822;28;20035;-84
2021/06/17 09:54:29;;;;;;;7.15;2.88;;;32.00;46.40;;;;;;5096373;28;20532;-84
2021/06/17 09:57:04;;;;;;;3.75;2.40;;;32.20;46.40;;;;;;5079920;28;20059;-84
2021/06/17 09:59:55;;;;;;;7.80;2.88;;;32.40;46.80;;;;;;5090843;28;20031;-84
2021/06/17 10:02:28;;;;;;;8.13;3.15;;;32.50;46.10;;;;;;5092643;28;20113;-84
2021/06/17 10:05:23;;;;;;;3.83;2.88;;;32.70;45.70;;;;;;5095889;28;20023;-84
2021/06/17 10:07:50;;;;;;;8.90;3.20;;;32.90;45.60;;;;;;5097572;28;20044;-83
2021/06/17 10:10:22;;;;;;;13.52;3.20;;;33.00;45.20;;;;;;5096177;28;20032;-84
2021/06/17 10:12:47;;;;;;;3.80;2.78;;;33.10;44.70;;;;;;5113954;28;20039;-84
2021/06/17 10:15:13;;;;;;;6.15;3.33;;;33.00;45.90;;;;;;5082018;28;20036;-84
2021/06/17 10:17:39;;;;;;;9.43;2.85;;;33.00;45.10;;;;;;5075268;28;20034;-84
2021/06/17 10:20:12;;;;;;;10.38;2.88;;;33.30;45.10;;;;;;5075576;28;20024;-84
2021/06/17 10:22:39;;;;;;;7.05;3.00;;;33.50;45.20;;;;;;5075595;28;20038;-84
2021/06/17 10:25:07;;;;;;;4.53;2.95;;;33.50;45.30;;;;;;5093555;28;20110;-84
2021/06/17 10:27:37;;;;;;;5.82;2.90;;;33.50;45.30;;;;;;5087484;28;20032;-84
2021/06/17 10:30:05;;;;;;;5.57;2.70;;;33.40;46.20;;;;;;5095537;28;20183;-84
2021/06/17 10:32:57;;;;;;;6.57;3.03;;;33.30;46.70;;;;;;5077219;28;20157;-84
2021/06/17 10:35:28;;;;;;;6.85;2.90;;;33.10;46.00;;;;;;5079033;28;20105;-84
2021/06/17 10:38:03;;;;;;;4.18;2.80;;;33.10;46.40;;;;;;5076044;28;20019;-84
2021/06/17 10:40:30;;;;;;;9.60;2.80;;;33.10;45.80;;;;;;5087185;28;20023;-84
2021/06/17 10:42:58;;;;;;;6.55;3.10;;;33.00;46.60;;;;;;5095950;28;20038;-84
2021/06/17 10:45:39;;;;;;;5.20;2.70;;;32.80;47.00;;;;;;5086804;28;20032;-84
2021/06/17 10:48:07;;;;;;;10.05;2.70;;;32.60;47.70;;;;;;5093509;28;20055;-85
2021/06/17 10:50:43;;;;;;;4.80;2.50;;;32.50;49.00;;;;;;5076109;28;20028;-83
2021/06/17 10:53:46;;;;;;;4.95;2.50;;;32.40;48.90;;;;;;5098372;28;20038;-83
2021/06/17 10:56:37;;;;;;;9.05;2.20;;;32.30;48.40;;;;;;4994614;28;20426;-84
2021/06/17 10:59:03;;;;;;;4.47;2.75;;;32.10;48.80;;;;;;5073445;28;20123;-85
2021/06/17 11:01:37;;;;;;;5.35;2.72;;;32.00;48.60;;;;;;5094879;28;20017;-85
2021/06/17 11:04:36;;;;;;;9.80;2.70;;;31.90;49.60;;;;;;5058972;28;20462;-85
2021/06/17 11:07:04;;;;;;;7.07;2.95;;;31.80;49.70;;;;;;5057581;28;20028;-84
2021/06/17 11:09:48;;;;;;;7.47;2.75;;;31.80;49.90;;;;;;5096759;28;20020;-85
2021/06/17 11:12:17;;;;;;;5.57;2.90;;;32.00;49.70;;;;;;5113352;28;20016;-85
2021/06/17 11:14:51;;;;;;;5.72;2.88;;;32.40;49.50;;;;;;5090756;28;20024;-85
2021/06/17 11:17:34;;;;;;;4.72;2.67;;;32.70;49.80;;;;;;5112036;28;20024;-85
2021/06/17 11:20:21;;;;;;;5.50;2.75;;;32.80;48.60;;;;;;5095421;28;20110;-86
2021/06/17 11:22:48;;;;;;;8.63;2.92;;;32.80;48.20;;;;;;5096072;28;20027;-85
2021/06/17 11:25:17;;;;;;;9.13;2.95;;;32.80;48.20;;;;;;5075046;28;20028;-84
2021/06/17 11:27:55;;;;;;;7.22;2.70;;;32.70;47.00;;;;;;5075067;28;20024;-84
2021/06/17 11:30:21;;;;;;;6.20;2.35;;;32.70;48.90;;;;;;5095339;28;20557;-85
2021/06/17 11:32:49;;;;;;;9.88;2.80;;;32.80;48.30;;;;;;5096637;28;20044;-85
2021/06/17 11:35:23;;;;;;;9.73;2.78;;;33.00;47.50;;;;;;5079444;28;20029;-84
2021/06/17 11:37:49;;;;;;;8.77;2.88;;;33.20;46.90;;;;;;5095444;28;20031;-84
2021/06/17 11:40:17;;;;;;;8.18;3.00;;;33.30;46.50;;;;;;5099042;28;20169;-85
2021/06/17 11:42:43;;;;;;;4.82;2.83;;;33.40;46.00;;;;;;5082020;28;20732;-85
2021/06/17 11:45:10;;;;;;;6.65;2.65;;;33.50;46.10;;;;;;5098921;28;20086;-85
2021/06/17 11:47:49;;;;;;;8.18;2.88;;;33.60;45.80;;;;;;5117248;28;20035;-85
2021/06/17 11:50:15;;;;;;;6.25;2.50;;;33.80;46.30;;;;;;5098804;28;20500;-85
2021/06/17 11:52:42;;;;;;;4.38;2.33;;;33.80;45.40;;;;;;5117069;28;20391;-84
2021/06/17 11:55:09;;;;;;;12.25;2.33;;;33.90;45.70;;;;;;5099060;28;20026;-84
2021/06/17 11:57:38;;;;;;;7.67;2.57;;;34.10;43.80;;;;;;5117447;28;20106;-84
2021/06/17 12:00:07;;;;;;;7.40;2.50;;;34.10;44.30;;;;;;5116844;28;20026;-84
2021/06/17 12:02:32;;;;;;;8.02;2.25;;;34.10;42.90;;;;;;5098317;28;20127;-85
2021/06/17 12:05:06;;;;;;;5.50;2.55;;;34.20;43.50;;;;;;5098565;28;20110;-86
2021/06/17 12:07:44;;;;;;;4.60;2.20;;;34.30;43.50;;;;;;5115057;28;20073;-85
2021/06/17 12:10:19;;;;;;;5.78;1.98;;;34.30;42.80;;;;;;5116678;28;20024;-85
2021/06/17 12:12:56;;;;;;;7.85;2.47;;;34.40;42.60;;;;;;5116651;28;20197;-85
2021/06/17 12:15:28;;;;;;;8.82;2.38;;;34.50;41.30;;;;;;5101673;28;20020;-85
2021/06/17 12:18:03;;;;;;;7.85;2.47;;;34.60;41.90;;;;;;5092141;28;20023;-85
2021/06/17 12:20:33;;;;;;;6.78;2.30;;;34.60;42.40;;;;;;5098018;28;20019;-85
2021/06/17 12:22:59;;;;;;;5.82;2.20;;;34.60;42.40;;;;;;5097603;28;20019;-84
2021/06/17 12:25:29;;;;;;;5.68;2.22;;;34.70;42.50;;;;;;5115590;28;20037;-85
2021/06/17 12:27:58;;;;;;;8.18;2.38;;;34.80;42.10;;;;;;5085265;28;20054;-85
2021/06/17 12:30:32;;;;;;;10.13;2.28;;;34.70;42.20;;;;;;5077087;28;20435;-84
2021/06/17 12:33:26;;;;;;;8.05;2.17;;;34.80;42.10;;;;;;5095640;28;20502;-84
2021/06/17 12:35:53;;;;;;;4.03;2.13;;;34.90;40.70;;;;;;5095680;28;20024;-85
2021/06/17 12:38:32;;;;;;;11.23;2.92;;;34.90;41.00;;;;;;5095678;28;20028;-82
2021/06/17 12:41:13;;;;;;;8.65;2.30;;;35.00;41.30;;;;;;5097787;28;20745;-80
2021/06/17 12:43:57;;;;;;;5.72;2.30;;;35.00;40.80;;;;;;5094951;28;20034;-80
2021/06/17 12:46:30;;;;;;;12.07;2.47;;;35.00;41.00;;;;;;5074483;28;20032;-80
2021/06/17 12:52:02;;;;;;;6.05;2.63;;;35.10;40.90;;;;;;5093765;28;20026;-79
2021/06/17 12:54:35;;;;;;;8.00;2.20;;;35.20;41.60;;;;;;5096528;28;20055;-79
2021/06/17 12:57:04;;;;;;;3.95;2.13;;;35.20;40.80;;;;;;5083299;28;20483;-80
2021/06/17 12:59:47;;;;;;;12.70;2.53;;;35.30;41.00;;;;;;5076038;28;20614;-80